Toyomasa Maru — JJ3927 — position and weather

sailwx.info

Track history (hours):
 
Tides and Currents Weather Stations Pressure Air Temp Water Temp Dewpoint Dewpoint Depression Visibility Wind Speed Wind Dir Waves Ship Positions

Toyomasa Maru

Last reported at 2016-Feb-11 18:31 UTC. Time now 2016-Feb-12 20:24 UTC.
Position N 35°07' E 139°43'.

Length 101 m; draft 6.3 m.

Type: Tanker. MMSI: 431300401.

Date/timePositionNaut miles runAvg speedWind from/ knotsBaromVisibWave heightAir tempDewpointWater temp
2016-Feb-11 18:31N 35°07' E 139°43'1111.3
2016-Feb-11 17:33N 35°17' E 139°45'1010.1
2016-Feb-11 16:33N 35°27' E 139°47'1110.9
2016-Feb-11 15:33N 35°29' E 140°01'1 0.5
2016-Feb-11 14:14N 35°28' E 140°01'0 0.0
2016-Feb-11 13:32N 35°28' E 140°01'0 0.0
2016-Feb-11 12:32N 35°28' E 140°01'0 0.0
2016-Feb-11 11:32N 35°28' E 140°01'0 0.0
2016-Feb-11 10:32N 35°28' E 140°01'0 0.1
2016-Feb-11 09:33N 35°28' E 140°01'5 4.8
2016-Feb-11 08:33N 35°29' E 139°55'0 0.1
2016-Feb-11 07:29N 35°29' E 139°55'0 0.0
2016-Feb-11 06:32N 35°29' E 139°55'0 0.1
2016-Feb-11 05:32N 35°29' E 139°55'7 7.2
2016-Feb-11 04:33N 35°32' E 140°03'0 0.2
2016-Feb-11 03:33N 35°32' E 140°03'0 0.0
2016-Feb-11 02:33N 35°32' E 140°03'0 0.0
2016-Feb-11 01:30N 35°32' E 140°03'0 0.0
2016-Feb-11 00:30N 35°32' E 140°03'0 0.0
2016-Feb-10 23:33N 35°32' E 140°03'0 0.0
2016-Feb-10 22:33N 35°32' E 140°03'4 4.2
2016-Feb-10 21:33N 35°31' E 139°58'4 3.7
2016-Feb-10 20:33N 35°29' E 139°55'0 0.0
2016-Feb-10 19:33N 35°29' E 139°55'0 0.0
2016-Feb-10 18:33N 35°29' E 139°55'0 0.0
2016-Feb-10 17:33N 35°29' E 139°55'0 0.0
2016-Feb-10 16:27N 35°29' E 139°55'0 0.1
2016-Feb-10 15:33N 35°29' E 139°55'0 0.0
2016-Feb-10 14:33N 35°29' E 139°55'0 0.0
2016-Feb-10 13:33N 35°29' E 139°55'0 0.0
2016-Feb-10 12:33N 35°29' E 139°55'0 0.0
2016-Feb-10 11:33N 35°29' E 139°55'0 0.0
2016-Feb-10 10:27N 35°29' E 139°55'0 0.0
2016-Feb-10 09:33N 35°29' E 139°55'0 0.0
2016-Feb-10 08:33N 35°29' E 139°55'0 0.0
2016-Feb-10 07:33N 35°29' E 139°55'0 0.0
2016-Feb-10 06:33N 35°29' E 139°55'0 0.0
2016-Feb-10 05:30N 35°29' E 139°55'0 0.0
2016-Feb-10 04:33N 35°29' E 139°55'0 0.0
2016-Feb-10 03:33N 35°29' E 139°55'0 0.0
2016-Feb-10 02:33N 35°29' E 139°55'0 0.0
2016-Feb-10 01:30N 35°29' E 139°55'0 0.0
2016-Feb-10 00:21N 35°29' E 139°55'0 0.1
2016-Feb-09 23:33N 35°29' E 139°55'0 0.0
2016-Feb-09 22:30N 35°29' E 139°55'0 0.0
2016-Feb-09 21:33N 35°29' E 139°55'0 0.0
2016-Feb-09 20:33N 35°29' E 139°55'0 0.0
2016-Feb-09 19:33N 35°29' E 139°55'0 0.0
2016-Feb-09 18:33N 35°29' E 139°55'0 0.0
2016-Feb-09 17:33N 35°29' E 139°55'3 2.7
2016-Feb-09 16:34N 35°28' E 139°52'1211.7
2016-Feb-09 15:34N 35°18' E 139°45'1211.5
2016-Feb-09 14:33N 35°06' E 139°46'24310.6
2016-Feb-08 15:33N 34°09' E 134°59'1413.4
2016-Feb-08 14:30N 34°23' E 135°02'1212.9
2016-Feb-08 13:33N 34°30' E 135°14'8 0.6
2016-Feb-07 22:33N 34°32' E 135°24'4 1.3
2016-Feb-07 19:14N 34°32' E 135°19'0 0.0
2016-Feb-07 18:26N 34°32' E 135°19'0 0.0
2016-Feb-07 17:32N 34°32' E 135°19'0 0.0
2016-Feb-07 16:14N 34°32' E 135°19'0 0.0
2016-Feb-07 15:32N 34°32' E 135°19'6 6.4
2016-Feb-07 14:33N 34°34' E 135°12'1413.7
2016-Feb-07 13:33N 34°36' E 134°55'  
Track history (hours):
 
Tides and Currents Weather Stations Pressure Air Temp Water Temp Dewpoint Dewpoint Depression Visibility Wind Speed Wind Dir Waves Ship Positions

Toyomasa Maru

Last reported at 2016-Feb-11 18:31 UTC. Time now 2016-Feb-12 20:24 UTC.
Position N 35°07' E 139°43'.

Length 101 m; draft 6.3 m.

Type: Tanker. MMSI: 431300401.

Date/timePositionNaut miles runAvg speedWind from/ knotsBaromVisibWave heightAir tempDewpointWater temp
2016-Feb-11 18:31N 35°07' E 139°43'1111.3
2016-Feb-11 17:33N 35°17' E 139°45'1010.1
2016-Feb-11 16:33N 35°27' E 139°47'1110.9
2016-Feb-11 15:33N 35°29' E 140°01'1 0.5
2016-Feb-11 14:14N 35°28' E 140°01'0 0.0
2016-Feb-11 13:32N 35°28' E 140°01'0 0.0
2016-Feb-11 12:32N 35°28' E 140°01'0 0.0
2016-Feb-11 11:32N 35°28' E 140°01'0 0.0
2016-Feb-11 10:32N 35°28' E 140°01'0 0.1
2016-Feb-11 09:33N 35°28' E 140°01'5 4.8
2016-Feb-11 08:33N 35°29' E 139°55'0 0.1
2016-Feb-11 07:29N 35°29' E 139°55'0 0.0
2016-Feb-11 06:32N 35°29' E 139°55'0 0.1
2016-Feb-11 05:32N 35°29' E 139°55'7 7.2
2016-Feb-11 04:33N 35°32' E 140°03'0 0.2
2016-Feb-11 03:33N 35°32' E 140°03'0 0.0
2016-Feb-11 02:33N 35°32' E 140°03'0 0.0
2016-Feb-11 01:30N 35°32' E 140°03'0 0.0
2016-Feb-11 00:30N 35°32' E 140°03'0 0.0
2016-Feb-10 23:33N 35°32' E 140°03'0 0.0
2016-Feb-10 22:33N 35°32' E 140°03'4 4.2
2016-Feb-10 21:33N 35°31' E 139°58'4 3.7
2016-Feb-10 20:33N 35°29' E 139°55'0 0.0
2016-Feb-10 19:33N 35°29' E 139°55'0 0.0
2016-Feb-10 18:33N 35°29' E 139°55'0 0.0
2016-Feb-10 17:33N 35°29' E 139°55'0 0.0
2016-Feb-10 16:27N 35°29' E 139°55'0 0.1
2016-Feb-10 15:33N 35°29' E 139°55'0 0.0
2016-Feb-10 14:33N 35°29' E 139°55'0 0.0
2016-Feb-10 13:33N 35°29' E 139°55'0 0.0
2016-Feb-10 12:33N 35°29' E 139°55'0 0.0
2016-Feb-10 11:33N 35°29' E 139°55'0 0.0
2016-Feb-10 10:27N 35°29' E 139°55'0 0.0
2016-Feb-10 09:33N 35°29' E 139°55'0 0.0
2016-Feb-10 08:33N 35°29' E 139°55'0 0.0
2016-Feb-10 07:33N 35°29' E 139°55'0 0.0
2016-Feb-10 06:33N 35°29' E 139°55'0 0.0
2016-Feb-10 05:30N 35°29' E 139°55'0 0.0
2016-Feb-10 04:33N 35°29' E 139°55'0 0.0
2016-Feb-10 03:33N 35°29' E 139°55'0 0.0
2016-Feb-10 02:33N 35°29' E 139°55'0 0.0
2016-Feb-10 01:30N 35°29' E 139°55'0 0.0
2016-Feb-10 00:21N 35°29' E 139°55'0 0.1
2016-Feb-09 23:33N 35°29' E 139°55'0 0.0
2016-Feb-09 22:30N 35°29' E 139°55'0 0.0
2016-Feb-09 21:33N 35°29' E 139°55'0 0.0
2016-Feb-09 20:33N 35°29' E 139°55'0 0.0
2016-Feb-09 19:33N 35°29' E 139°55'0 0.0
2016-Feb-09 18:33N 35°29' E 139°55'0 0.0
2016-Feb-09 17:33N 35°29' E 139°55'3 2.7
2016-Feb-09 16:34N 35°28' E 139°52'1211.7
2016-Feb-09 15:34N 35°18' E 139°45'1211.5
2016-Feb-09 14:33N 35°06' E 139°46'24310.6
2016-Feb-08 15:33N 34°09' E 134°59'1413.4
2016-Feb-08 14:30N 34°23' E 135°02'1212.9
2016-Feb-08 13:33N 34°30' E 135°14'8 0.6
2016-Feb-07 22:33N 34°32' E 135°24'4 1.3
2016-Feb-07 19:14N 34°32' E 135°19'0 0.0
2016-Feb-07 18:26N 34°32' E 135°19'0 0.0
2016-Feb-07 17:32N 34°32' E 135°19'0 0.0
2016-Feb-07 16:14N 34°32' E 135°19'0 0.0
2016-Feb-07 15:32N 34°32' E 135°19'6 6.4
2016-Feb-07 14:33N 34°34' E 135°12'1413.7
2016-Feb-07 13:33N 34°36' E 134°55'  

Dump ship's entire track history